Time;durP1;ratioP1;P1;durP2;ratioP2;P2;SDS_P1;SDS_P2;PMS_P1;PMS_P2;Temp;Humidity;BMP_temperature;BMP_pressure;BME280_temperature;BME280_humidity;BME280_pressure;Samples;Min_cycle;Max_cycle;Signal;HPM_P1;HPM_P2
2024/04/16 00:01:13;;;;;;;9.80;2.03;;;9.00;99.90;;;;;;5196216;27;37191;-78
2024/04/16 00:03:43;;;;;;;14.43;2.53;;;9.00;99.90;;;;;;5197405;27;37209;-78
2024/04/16 00:06:22;;;;;;;16.03;2.60;;;9.00;99.90;;;;;;5190274;27;39745;-79
2024/04/16 00:08:52;;;;;;;12.37;2.30;;;9.00;99.90;;;;;;5183910;27;38259;-80
2024/04/16 00:11:24;;;;;;;11.88;2.20;;;9.00;1.00;;;;;;5194492;27;40958;-78
2024/04/16 00:16:27;;;;;;;9.37;1.57;;;8.80;99.90;;;;;;5251830;22;20046;-79
2024/04/16 00:18:54;;;;;;;9.60;1.50;;;8.80;99.90;;;;;;5154219;27;38757;-79
2024/04/16 00:21:22;;;;;;;7.97;1.20;;;8.70;1.00;;;;;;5133215;27;38740;-78
2024/04/16 00:23:56;;;;;;;5.80;1.33;;;8.60;1.00;;;;;;5135741;27;36393;-78
2024/04/16 00:26:26;;;;;;;9.57;1.40;;;8.20;1.00;;;;;;5106287;27;38728;-79
2024/04/16 00:28:52;;;;;;;5.93;1.40;;;8.00;1.00;;;;;;5134795;27;39865;-78
2024/04/16 00:31:20;;;;;;;10.53;1.73;;;7.80;1.00;;;;;;5121669;27;36826;-79
2024/04/16 00:33:47;;;;;;;8.73;1.70;;;7.70;1.00;;;;;;5124447;27;39822;-79
2024/04/16 00:36:23;;;;;;;9.10;1.87;;;7.70;1.00;;;;;;5130166;27;38616;-78
2024/04/16 00:38:50;;;;;;;10.83;1.73;;;7.70;1.00;;;;;;5154066;27;37576;-78
2024/04/16 00:41:17;;;;;;;11.70;1.90;;;7.70;1.00;;;;;;5152723;27;38412;-79
2024/04/16 00:43:47;;;;;;;8.70;1.67;;;7.70;1.00;;;;;;5129530;28;36563;-78
2024/04/16 00:46:13;;;;;;;5.47;1.70;;;7.80;1.00;;;;;;5128241;27;38942;-77
2024/04/16 00:48:43;;;;;;;8.60;2.77;;;7.80;1.00;;;;;;5122008;27;37143;-77
2024/04/16 00:51:10;;;;;;;13.27;1.83;;;8.00;1.00;;;;;;5146735;27;41149;-78
2024/04/16 00:53:37;;;;;;;10.97;1.77;;;8.00;1.00;;;;;;5157895;27;37174;-79
2024/04/16 00:56:06;;;;;;;10.53;2.17;;;8.00;1.00;;;;;;5144569;27;38258;-78
2024/04/16 00:58:37;;;;;;;9.53;2.47;;;8.00;1.00;;;;;;5117837;27;38578;-77
2024/04/16 01:03:43;;;;;;;9.10;1.53;;;7.70;1.00;;;;;;5330623;22;20050;-82
2024/04/16 01:06:10;;;;;;;6.90;1.90;;;7.60;1.00;;;;;;5132700;27;38785;-82
2024/04/16 01:08:36;;;;;;;7.67;1.47;;;7.40;1.00;;;;;;5163889;27;39072;-82
2024/04/16 01:11:02;;;;;;;9.27;1.47;;;7.50;1.00;;;;;;5131644;27;37346;-81
2024/04/16 01:13:29;;;;;;;15.43;2.20;;;7.60;1.00;;;;;;5133389;27;38796;-81
2024/04/16 01:15:55;;;;;;;12.53;1.67;;;7.60;1.00;;;;;;5131798;28;37699;-82
2024/04/16 01:18:21;;;;;;;12.57;1.97;;;7.70;1.00;;;;;;5162748;27;38203;-82
2024/04/16 01:20:47;;;;;;;6.97;1.90;;;7.70;1.00;;;;;;5134653;27;36432;-81
2024/04/16 01:23:13;;;;;;;16.43;2.30;;;7.80;1.00;;;;;;5130376;27;37516;-81
2024/04/16 01:25:42;;;;;;;8.17;2.03;;;7.80;1.00;;;;;;5131646;27;39467;-81
2024/04/16 01:28:18;;;;;;;9.27;1.47;;;7.80;1.00;;;;;;5129402;27;37305;-80
2024/04/16 01:30:44;;;;;;;7.80;1.60;;;7.70;1.00;;;;;;5160363;27;37959;-80
2024/04/16 01:33:10;;;;;;;9.70;1.50;;;7.70;1.00;;;;;;5156074;27;36021;-81
2024/04/16 01:35:36;;;;;;;7.87;1.77;;;7.60;1.00;;;;;;5128535;27;39207;-80
2024/04/16 01:38:02;;;;;;;10.23;2.07;;;7.40;1.00;;;;;;5165598;27;35947;-80
2024/04/16 01:40:29;;;;;;;8.97;1.50;;;7.30;1.00;;;;;;5161029;27;38612;-81
2024/04/16 01:42:55;;;;;;;13.17;2.10;;;7.20;1.00;;;;;;5152395;27;36452;-81
2024/04/16 01:45:31;;;;;;;12.07;2.77;;;7.20;11.60;;;;;;5124415;27;37917;-80
2024/04/16 01:47:57;;;;;;;15.27;3.87;;;7.20;12.90;;;;;;5140409;27;37094;-81
2024/04/16 01:50:23;;;;;;;10.87;2.20;;;7.20;22.90;;;;;;5150468;27;38503;-80
2024/04/16 01:52:51;;;;;;;10.10;2.23;;;7.30;26.30;;;;;;5153629;27;36267;-81
2024/04/16 01:55:17;;;;;;;17.03;2.53;;;7.30;26.30;;;;;;5162717;27;38199;-80
2024/04/16 01:57:43;;;;;;;9.37;2.30;;;7.50;15.00;;;;;;5119590;27;37179;-80
2024/04/16 02:00:10;;;;;;;11.93;2.60;;;7.60;10.60;;;;;;5153799;27;34780;-80
2024/04/16 02:02:36;;;;;;;9.67;2.53;;;7.80;1.00;;;;;;5123037;27;36418;-81
2024/04/16 02:05:03;;;;;;;12.50;2.50;;;7.90;1.00;;;;;;5127838;27;37478;-80
2024/04/16 02:07:33;;;;;;;13.17;2.40;;;7.90;1.00;;;;;;5131637;27;47570;-81
2024/04/16 02:09:59;;;;;;;13.33;2.13;;;7.90;1.00;;;;;;5130727;27;36922;-81
2024/04/16 02:12:25;;;;;;;9.53;1.93;;;8.00;1.00;;;;;;5129959;27;36172;-81
2024/04/16 02:14:51;;;;;;;8.63;1.40;;;8.00;1.00;;;;;;5130997;27;41051;-81
2024/04/16 02:17:18;;;;;;;11.83;1.60;;;8.00;1.00;;;;;;5128554;27;37757;-80
2024/04/16 02:19:44;;;;;;;12.60;2.13;;;8.00;1.00;;;;;;5144630;27;38137;-81
2024/04/16 02:22:10;;;;;;;16.70;3.17;;;8.10;1.00;;;;;;5122013;27;38153;-81
2024/04/16 02:24:37;;;;;;;11.23;1.93;;;8.10;1.00;;;;;;5157633;27;38625;-81
2024/04/16 02:27:03;;;;;;;11.80;2.00;;;8.10;1.00;;;;;;5129172;27;38808;-80
2024/04/16 02:29:29;;;;;;;11.07;1.77;;;8.10;1.00;;;;;;5157111;27;36813;-80
2024/04/16 02:31:56;;;;;;;13.70;2.00;;;8.00;1.00;;;;;;5131155;27;38490;-80
2024/04/16 02:34:22;;;;;;;13.23;2.33;;;7.90;3.40;;;;;;5132892;27;37871;-80
2024/04/16 02:36:48;;;;;;;16.03;2.50;;;7.90;1.00;;;;;;5168641;27;38858;-81
2024/04/16 02:39:16;;;;;;;13.70;2.37;;;7.90;1.00;;;;;;5166465;27;39498;-81
2024/04/16 02:41:43;;;;;;;9.27;2.03;;;7.90;1.00;;;;;;5166981;27;37878;-80
2024/04/16 02:44:09;;;;;;;6.80;1.87;;;7.90;1.00;;;;;;5126560;27;37656;-81
2024/04/16 02:46:35;;;;;;;12.93;2.33;;;7.70;13.50;;;;;;5118752;27;39341;-79
2024/04/16 02:49:01;;;;;;;12.63;2.10;;;7.50;32.30;;;;;;5125661;27;37880;-79
2024/04/16 02:51:28;;;;;;;17.17;2.30;;;7.40;47.60;;;;;;5120879;27;37808;-79
2024/04/16 02:53:55;;;;;;;13.37;2.27;;;7.30;68.00;;;;;;5123171;27;39166;-80
2024/04/16 02:56:21;;;;;;;10.13;1.60;;;7.40;86.10;;;;;;5118039;27;38687;-80
2024/04/16 02:58:47;;;;;;;8.80;2.10;;;7.30;73.50;;;;;;5120524;27;36688;-80
2024/04/16 03:01:13;;;;;;;13.10;2.20;;;7.20;79.80;;;;;;5116305;27;37108;-80
2024/04/16 03:03:39;;;;;;;7.50;1.70;;;7.20;93.80;;;;;;5151716;27;38130;-79
2024/04/16 03:06:06;;;;;;;12.83;2.03;;;7.20;96.80;;;;;;5119669;27;36787;-80
2024/04/16 03:08:32;;;;;;;12.57;2.77;;;7.20;99.80;;;;;;5126398;27;37936;-80
2024/04/16 03:11:02;;;;;;;11.70;2.03;;;7.30;97.20;;;;;;5121306;27;37569;-80
2024/04/16 03:13:28;;;;;;;10.83;2.20;;;7.30;91.70;;;;;;5159346;27;46961;-79
2024/04/16 03:15:54;;;;;;;16.03;2.50;;;7.40;82.30;;;;;;5115954;27;40333;-80
2024/04/16 03:18:20;;;;;;;15.40;2.23;;;7.40;91.10;;;;;;5124291;27;40287;-80
2024/04/16 03:20:47;;;;;;;19.83;4.50;;;7.40;94.20;;;;;;5119099;27;36442;-80
2024/04/16 03:23:14;;;;;;;15.90;2.20;;;7.40;88.40;;;;;;5118794;27;37677;-79
2024/04/16 03:25:42;;;;;;;11.70;2.63;;;7.40;77.70;;;;;;5118985;27;38073;-80
2024/04/16 03:28:08;;;;;;;17.43;2.73;;;7.50;76.60;;;;;;5123573;27;38359;-79
2024/04/16 03:30:35;;;;;;;12.23;2.67;;;7.50;77.70;;;;;;5146506;27;38176;-79
2024/04/16 03:33:02;;;;;;;15.80;2.30;;;7.60;76.60;;;;;;5145937;27;38992;-79
2024/04/16 03:35:28;;;;;;;9.00;2.00;;;7.60;91.00;;;;;;5119221;27;47541;-79
2024/04/16 03:37:54;;;;;;;9.43;1.70;;;7.50;75.10;;;;;;5117088;27;37145;-79
2024/04/16 03:40:21;;;;;;;8.17;1.33;;;7.40;57.00;;;;;;5111056;27;38493;-79
2024/04/16 03:42:47;;;;;;;14.23;2.23;;;7.30;50.70;;;;;;5155803;27;39758;-79
2024/04/16 03:45:13;;;;;;;11.53;1.73;;;7.30;57.70;;;;;;5120276;27;37784;-79
2024/04/16 03:47:40;;;;;;;6.43;1.60;;;7.20;85.00;;;;;;5115457;27;37611;-80
2024/04/16 03:50:06;;;;;;;10.27;1.53;;;7.10;92.60;;;;;;5123649;27;38590;-80
2024/04/16 03:52:32;;;;;;;10.23;1.30;;;7.00;99.90;;;;;;5122981;27;38740;-80
2024/04/16 03:54:58;;;;;;;6.30;1.83;;;6.90;99.90;;;;;;5118936;27;36993;-80
2024/04/16 03:57:24;;;;;;;6.53;1.27;;;6.80;99.90;;;;;;5125780;27;37811;-80
2024/04/16 04:02:35;;;;;;;8.73;1.43;;;6.70;99.90;;;;;;5114521;27;39292;-80
2024/04/16 04:05:03;;;;;;;7.00;1.20;;;6.70;99.90;;;;;;5154904;27;37473;-80
2024/04/16 04:07:29;;;;;;;12.03;1.27;;;6.70;99.90;;;;;;5148302;27;37187;-79
2024/04/16 04:09:55;;;;;;;5.90;1.23;;;6.70;99.90;;;;;;5118935;27;36841;-79
2024/04/16 04:12:22;;;;;;;9.73;1.03;;;6.70;99.90;;;;;;5118908;27;39030;-79
2024/04/16 04:14:48;;;;;;;8.27;1.23;;;6.70;99.90;;;;;;5120041;27;39060;-79
2024/04/16 04:17:14;;;;;;;11.53;1.83;;;6.60;99.90;;;;;;5143236;27;36801;-80
2024/04/16 04:19:40;;;;;;;7.53;1.20;;;6.60;99.90;;;;;;5120436;27;38486;-79
2024/04/16 04:22:07;;;;;;;10.37;1.80;;;6.60;99.90;;;;;;5118173;27;38138;-79
2024/04/16 04:24:33;;;;;;;5.53;1.20;;;6.60;99.90;;;;;;5113317;27;38697;-79
2024/04/16 04:27:00;;;;;;;9.70;1.43;;;6.60;99.90;;;;;;5116510;27;38725;-79
2024/04/16 04:29:26;;;;;;;11.77;1.90;;;6.60;99.90;;;;;;5142496;27;36029;-79
2024/04/16 04:31:52;;;;;;;19.53;3.30;;;6.60;99.90;;;;;;5110505;27;40827;-79
2024/04/16 04:34:18;;;;;;;7.10;1.50;;;6.70;99.90;;;;;;5116127;27;37337;-80
2024/04/16 04:36:44;;;;;;;15.77;2.00;;;6.70;99.90;;;;;;5147631;27;37875;-79
2024/04/16 04:39:11;;;;;;;19.60;1.90;;;6.70;99.90;;;;;;5152274;27;37980;-80
2024/04/16 04:41:37;;;;;;;15.27;2.10;;;6.80;99.90;;;;;;5148385;27;39703;-80
2024/04/16 04:44:03;;;;;;;12.87;1.90;;;6.80;99.90;;;;;;5120705;27;39486;-80
2024/04/16 04:46:30;;;;;;;17.53;2.97;;;6.90;99.90;;;;;;5115305;27;38519;-80
2024/04/16 04:48:56;;;;;;;18.67;3.60;;;7.00;99.90;;;;;;5107185;27;37395;-79
2024/04/16 04:51:22;;;;;;;20.33;2.70;;;7.10;99.90;;;;;;5107891;27;41963;-79
2024/04/16 04:53:48;;;;;;;25.10;4.63;;;7.20;99.90;;;;;;5114516;27;39693;-79
2024/04/16 04:56:14;;;;;;;19.90;3.60;;;7.40;99.90;;;;;;5138122;27;37142;-79
2024/04/16 04:58:40;;;;;;;24.10;3.40;;;7.50;99.90;;;;;;5112940;27;37806;-78
2024/04/16 05:01:06;;;;;;;23.20;4.07;;;7.60;99.90;;;;;;5105654;27;38514;-78
2024/04/16 05:03:33;;;;;;;25.53;4.07;;;7.70;99.90;;;;;;5109002;27;39332;-78
2024/04/16 05:05:59;;;;;;;26.07;3.27;;;7.70;99.90;;;;;;5109657;27;38366;-78
2024/04/16 05:08:28;;;;;;;31.53;4.27;;;7.70;99.90;;;;;;5133655;27;36831;-78
2024/04/16 05:10:54;;;;;;;19.03;3.27;;;7.70;99.90;;;;;;5103250;27;39103;-79
2024/04/16 05:13:20;;;;;;;19.47;3.37;;;7.80;99.90;;;;;;5111338;27;36252;-79
2024/04/16 05:15:50;;;;;;;13.93;2.90;;;7.80;99.90;;;;;;5108772;27;39832;-80
2024/04/16 05:18:16;;;;;;;21.23;3.23;;;7.80;99.90;;;;;;5128758;27;36624;-80
2024/04/16 05:20:47;;;;;;;24.03;4.10;;;7.90;99.90;;;;;;5132534;27;38022;-80
2024/04/16 05:23:21;;;;;;;26.42;3.47;;;8.00;99.90;;;;;;5128344;27;37114;-80
2024/04/16 05:25:54;;;;;;;18.63;2.87;;;8.00;99.90;;;;;;5128729;27;37745;-80
2024/04/16 05:28:21;;;;;;;21.50;4.17;;;8.00;99.90;;;;;;5129748;27;36456;-80
2024/04/16 05:30:47;;;;;;;14.10;2.20;;;8.00;99.90;;;;;;5130797;27;39319;-80
2024/04/16 05:33:14;;;;;;;30.33;3.47;;;8.10;99.90;;;;;;5122300;27;38108;-80
2024/04/16 05:35:42;;;;;;;16.53;2.93;;;8.10;99.90;;;;;;5160017;27;37421;-81
2024/04/16 05:38:08;;;;;;;14.47;2.23;;;8.10;99.90;;;;;;5133764;27;36456;-80
2024/04/16 05:40:34;;;;;;;15.50;2.47;;;8.00;99.90;;;;;;5143936;27;37747;-80
2024/04/16 05:43:04;;;;;;;14.37;2.60;;;7.90;99.90;;;;;;5138415;27;37442;-81
2024/04/16 05:45:31;;;;;;;14.47;2.80;;;7.80;99.90;;;;;;5152872;27;47645;-81
2024/04/16 05:47:57;;;;;;;17.40;2.57;;;7.90;99.90;;;;;;5141740;27;37184;-80
2024/04/16 05:50:24;;;;;;;13.17;3.33;;;7.90;99.90;;;;;;5133389;27;38961;-80
2024/04/16 05:52:50;;;;;;;15.17;2.63;;;7.90;99.90;;;;;;5135435;27;39643;-80
2024/04/16 05:55:16;;;;;;;16.67;2.50;;;7.90;99.90;;;;;;5143161;27;37853;-81
2024/04/16 05:57:42;;;;;;;11.00;2.00;;;7.90;99.90;;;;;;5125432;27;36527;-78
2024/04/16 06:00:09;;;;;;;19.83;3.40;;;7.90;99.90;;;;;;5115126;27;38817;-80
2024/04/16 06:02:35;;;;;;;41.87;4.53;;;7.90;99.90;;;;;;5097211;27;37066;-79
2024/04/16 06:05:01;;;;;;;16.73;2.63;;;7.90;99.90;;;;;;5111370;27;37048;-79
2024/04/16 06:07:33;;;;;;;21.23;3.27;;;8.00;99.90;;;;;;5089306;27;37945;-80
2024/04/16 06:10:00;;;;;;;13.27;2.97;;;8.00;99.90;;;;;;5096331;27;38358;-79
2024/04/16 06:12:30;;;;;;;28.10;4.00;;;8.00;99.90;;;;;;5127861;27;38033;-79
2024/04/16 06:14:58;;;;;;;20.07;2.93;;;8.00;99.90;;;;;;5104792;27;37349;-79
2024/04/16 06:17:24;;;;;;;17.37;2.60;;;7.90;99.90;;;;;;5087008;27;37311;-78
2024/04/16 06:19:50;;;;;;;18.03;2.37;;;7.80;99.90;;;;;;5087641;27;39937;-78
2024/04/16 06:22:24;;;;;;;16.37;3.10;;;7.80;99.90;;;;;;5093422;27;37987;-81
2024/04/16 06:24:51;;;;;;;14.37;3.00;;;7.70;99.90;;;;;;5405028;22;36609;-83
2024/04/16 06:27:26;;;;;;;21.97;3.40;;;7.70;99.90;;;;;;5176577;27;36291;-82
2024/04/16 06:29:58;;;;;;;30.77;4.43;;;7.80;99.90;;;;;;5163768;27;39404;-82
2024/04/16 06:32:55;;;;;;;22.20;3.23;;;7.90;99.90;;;;;;5159654;27;48468;-83
2024/04/16 06:35:40;;;;;;;29.40;4.50;;;8.00;99.90;;;;;;5149650;27;38838;-82
2024/04/16 06:38:13;;;;;;;25.15;4.00;;;8.10;99.90;;;;;;5121426;27;37144;-82
2024/04/16 06:40:55;;;;;;;26.27;4.70;;;8.20;99.90;;;;;;5185789;27;39029;-84
2024/04/16 06:43:37;;;;;;;23.70;3.93;;;8.30;99.90;;;;;;5137749;27;39018;-82
2024/04/16 06:46:07;;;;;;;18.13;3.77;;;8.40;99.90;;;;;;5156864;27;36583;-82
2024/04/16 06:48:34;;;;;;;16.17;2.77;;;8.50;99.90;;;;;;5161523;27;36631;-80
2024/04/16 06:51:14;;;;;;;17.27;3.53;;;8.70;99.90;;;;;;5177751;27;37693;-83
2024/04/16 06:53:44;;;;;;;13.77;3.00;;;8.80;99.90;;;;;;5125487;27;50403;-80
2024/04/16 06:56:11;;;;;;;16.80;2.53;;;8.80;99.90;;;;;;5098553;27;38523;-80
2024/04/16 06:58:37;;;;;;;13.67;2.07;;;8.80;99.90;;;;;;5101288;28;37518;-81
2024/04/16 07:01:04;;;;;;;19.13;2.60;;;8.80;98.40;;;;;;5155870;27;38247;-80
2024/04/16 07:03:30;;;;;;;18.37;3.57;;;8.80;99.20;;;;;;5097452;27;38210;-80
2024/04/16 07:05:56;;;;;;;19.93;2.37;;;8.80;99.90;;;;;;5105455;27;37866;-80
2024/04/16 07:08:22;;;;;;;20.70;2.83;;;8.90;99.90;;;;;;5103254;27;36545;-81
2024/04/16 07:10:49;;;;;;;17.43;2.73;;;9.00;99.90;;;;;;5154861;27;39565;-80
2024/04/16 07:13:16;;;;;;;23.17;3.60;;;9.00;98.30;;;;;;5133049;27;37454;-80
2024/04/16 07:15:42;;;;;;;26.40;3.73;;;9.10;97.20;;;;;;5122869;27;36712;-79
2024/04/16 07:18:08;;;;;;;22.93;3.33;;;9.00;97.40;;;;;;5123246;27;36092;-80
2024/04/16 07:20:34;;;;;;;25.57;3.97;;;9.10;99.00;;;;;;5156796;27;37598;-79
2024/04/16 07:23:01;;;;;;;22.43;3.80;;;9.00;99.90;;;;;;5099064;27;38286;-80
2024/04/16 07:25:35;;;;;;;17.23;3.50;;;9.00;99.90;;;;;;5121338;27;48820;-82
2024/04/16 07:28:02;;;;;;;23.83;3.73;;;8.90;99.90;;;;;;5125013;27;38671;-81
2024/04/16 07:30:28;;;;;;;20.10;3.50;;;8.90;99.90;;;;;;5119682;27;40312;-80
2024/04/16 07:32:55;;;;;;;17.73;3.73;;;9.00;99.90;;;;;;5175342;27;36715;-82
2024/04/16 07:35:21;;;;;;;18.00;3.20;;;8.90;99.90;;;;;;5177096;27;38108;-83
2024/04/16 07:37:49;;;;;;;10.37;1.87;;;8.90;99.90;;;;;;5127085;27;35336;-81
2024/04/16 07:40:21;;;;;;;8.27;1.40;;;8.80;99.90;;;;;;5178138;27;38860;-80
2024/04/16 07:42:50;;;;;;;15.67;2.23;;;8.70;99.90;;;;;;5118728;27;37334;-82
2024/04/16 07:45:16;;;;;;;14.47;3.27;;;8.70;99.90;;;;;;5122195;27;36781;-82
2024/04/16 07:47:49;;;;;;;17.43;3.27;;;8.70;99.90;;;;;;5126901;27;36789;-81
2024/04/16 07:50:18;;;;;;;20.47;3.00;;;8.70;99.90;;;;;;5147020;27;37615;-80
2024/04/16 07:52:47;;;;;;;16.93;2.40;;;8.70;99.90;;;;;;5125589;27;38563;-80
2024/04/16 07:55:15;;;;;;;20.27;2.60;;;8.80;99.90;;;;;;5198434;27;37473;-81
2024/04/16 07:57:41;;;;;;;17.73;2.43;;;9.00;99.90;;;;;;5094163;27;37713;-75
2024/04/16 08:00:09;;;;;;;12.63;2.03;;;9.20;96.90;;;;;;5081834;27;38606;-77
2024/04/16 08:02:35;;;;;;;16.80;2.93;;;9.40;90.80;;;;;;5081263;27;37370;-78
2024/04/16 08:05:01;;;;;;;9.77;2.13;;;9.60;82.60;;;;;;5105248;27;39559;-77
2024/04/16 08:07:27;;;;;;;14.73;3.67;;;9.70;39.60;;;;;;5078724;27;37165;-77
2024/04/16 08:09:53;;;;;;;17.60;2.28;;;9.70;28.20;;;;;;5079904;27;37553;-77
2024/04/16 08:12:38;;;;;;;20.50;3.07;;;9.60;38.90;;;;;;5151553;27;37511;-82
2024/04/16 08:15:09;;;;;;;17.97;3.07;;;9.50;42.90;;;;;;5124448;27;37472;-80
2024/04/16 08:17:58;;;;;;;25.73;3.63;;;9.50;43.80;;;;;;5181859;27;37862;-81
2024/04/16 08:20:46;;;;;;;26.63;3.90;;;9.40;52.50;;;;;;5131325;27;39714;-82
2024/04/16 08:23:20;;;;;;;17.40;3.00;;;9.40;66.10;;;;;;5149944;27;38329;-81
2024/04/16 08:26:00;;;;;;;21.80;3.20;;;9.30;81.10;;;;;;5123752;27;37469;-81
2024/04/16 08:28:30;;;;;;;18.90;3.17;;;9.40;90.50;;;;;;5126207;27;35476;-81
2024/04/16 08:31:06;;;;;;;15.00;3.20;;;9.40;67.60;;;;;;5123384;27;38196;-81
2024/04/16 08:33:39;;;;;;;18.27;3.60;;;9.40;59.00;;;;;;5168690;27;50555;-80
2024/04/16 08:36:08;;;;;;;14.77;3.07;;;9.50;68.20;;;;;;5134958;27;38344;-80
2024/04/16 08:38:37;;;;;;;22.93;2.90;;;9.50;45.00;;;;;;5101532;27;36618;-80
2024/04/16 08:41:05;;;;;;;21.77;3.63;;;9.60;35.90;;;;;;5110067;27;40067;-80
2024/04/16 08:43:39;;;;;;;20.13;3.03;;;9.70;45.00;;;;;;5116455;27;37577;-80
2024/04/16 08:46:12;;;;;;;18.47;3.20;;;9.80;38.70;;;;;;5133188;27;37194;-80
2024/04/16 08:48:40;;;;;;;19.50;3.45;;;10.00;37.20;;;;;;5116974;27;36663;-80
2024/04/16 08:51:08;;;;;;;21.15;3.70;;;10.10;24.50;;;;;;5160876;27;38123;-80
2024/04/16 08:53:36;;;;;;;16.73;2.97;;;10.10;11.80;;;;;;5098860;27;38393;-80
2024/04/16 08:56:04;;;;;;;20.33;3.03;;;10.00;13.60;;;;;;5097964;27;37236;-80
2024/04/16 08:58:31;;;;;;;25.17;3.47;;;9.90;25.70;;;;;;5155474;27;36538;-80
2024/04/16 09:00:58;;;;;;;15.73;2.63;;;9.90;27.30;;;;;;5163645;27;37916;-80
2024/04/16 09:03:29;;;;;;;16.45;3.03;;;9.90;28.50;;;;;;5112902;27;38073;-81
2024/04/16 09:05:58;;;;;;;11.35;2.38;;;9.90;19.20;;;;;;5140114;27;37174;-80
2024/04/16 09:08:25;;;;;;;11.10;2.13;;;9.80;1.00;;;;;;5115914;27;36199;-80
2024/04/16 09:10:52;;;;;;;12.57;2.13;;;9.90;1.00;;;;;;5116725;28;38200;-80
2024/04/16 09:13:19;;;;;;;10.80;2.07;;;9.90;1.00;;;;;;5105889;27;37496;-80
2024/04/16 09:15:45;;;;;;;17.08;2.55;;;10.00;1.00;;;;;;5111508;27;37536;-80
2024/04/16 09:18:12;;;;;;;16.08;2.25;;;10.10;1.00;;;;;;5162503;27;36644;-79
2024/04/16 09:20:38;;;;;;;15.70;3.00;;;10.20;1.00;;;;;;5109597;27;38579;-80
2024/04/16 09:23:05;;;;;;;16.83;2.53;;;10.20;1.00;;;;;;5124955;27;37251;-81
2024/04/16 09:25:37;;;;;;;20.23;2.92;;;10.50;1.30;;;;;;5135050;27;37604;-80
2024/04/16 09:28:04;;;;;;;16.52;3.80;;;10.90;1.00;;;;;;5142505;27;35784;-80
2024/04/16 09:30:37;;;;;;;23.73;4.00;;;11.20;1.00;;;;;;5141785;27;38853;-81
2024/04/16 09:33:05;;;;;;;19.08;3.38;;;11.20;1.00;;;;;;5107586;27;39883;-80
2024/04/16 09:35:32;;;;;;;15.13;2.80;;;11.10;1.00;;;;;;5104186;27;37389;-80
2024/04/16 09:38:05;;;;;;;15.90;3.03;;;11.00;1.00;;;;;;5135543;27;36410;-79
2024/04/16 09:40:31;;;;;;;16.20;2.97;;;10.90;1.00;;;;;;5103907;27;47351;-80
2024/04/16 09:42:59;;;;;;;18.35;3.25;;;10.60;1.00;;;;;;5160852;27;38822;-80
2024/04/16 09:45:25;;;;;;;21.50;3.78;;;10.30;1.00;;;;;;5123949;27;39028;-80
2024/04/16 09:47:55;;;;;;;15.07;2.93;;;10.10;1.00;;;;;;5155056;27;38518;-80
2024/04/16 09:50:22;;;;;;;15.80;2.88;;;10.10;1.00;;;;;;5100456;27;39357;-79
2024/04/16 09:52:55;;;;;;;16.15;2.63;;;10.30;1.00;;;;;;5099855;27;39320;-80
2024/04/16 09:55:23;;;;;;;13.00;3.05;;;10.20;1.00;;;;;;5127378;27;38960;-80
2024/04/16 09:57:50;;;;;;;17.00;3.33;;;10.30;1.00;;;;;;5097306;27;36079;-79
2024/04/16 10:00:18;;;;;;;17.23;3.17;;;10.10;9.20;;;;;;5089156;27;38279;-81
2024/04/16 10:02:45;;;;;;;18.47;3.03;;;10.00;25.90;;;;;;5089365;27;38614;-80
2024/04/16 10:05:14;;;;;;;17.70;2.63;;;9.80;59.90;;;;;;5104389;27;37192;-80
2024/04/16 10:07:45;;;;;;;18.53;2.50;;;9.70;75.80;;;;;;5141928;27;36570;-81
2024/04/16 10:10:15;;;;;;;15.30;2.75;;;9.80;84.50;;;;;;5146878;27;40248;-80
2024/04/16 10:12:43;;;;;;;15.30;2.67;;;9.90;97.60;;;;;;5111182;27;38581;-80
2024/04/16 10:15:13;;;;;;;17.02;2.70;;;10.20;83.60;;;;;;5114677;27;36473;-81
2024/04/16 10:17:55;;;;;;;20.20;3.03;;;10.60;88.00;;;;;;5105123;27;36919;-80
2024/04/16 10:20:47;;;;;;;22.15;3.85;;;10.90;17.70;;;;;;5128007;27;37663;-81
2024/04/16 10:23:19;;;;;;;21.58;2.85;;;11.00;11.50;;;;;;5146353;27;38133;-79
2024/04/16 10:26:17;;;;;;;18.27;3.13;;;11.10;3.90;;;;;;5128701;27;38071;-80
2024/04/16 10:28:59;;;;;;;18.08;3.20;;;10.80;22.40;;;;;;5062997;27;49032;-81
2024/04/16 10:31:33;;;;;;;19.50;3.30;;;10.60;59.50;;;;;;5117029;22;44376;-80
2024/04/16 10:34:03;;;;;;;16.10;3.17;;;10.60;86.40;;;;;;5194585;27;37904;-79
2024/04/16 10:36:30;;;;;;;21.98;3.30;;;10.70;82.60;;;;;;5188015;27;47185;-79
2024/04/16 10:38:57;;;;;;;29.17;3.40;;;10.50;86.20;;;;;;5177295;27;36100;-80
2024/04/16 10:41:26;;;;;;;19.38;3.42;;;10.60;98.10;;;;;;5189156;27;37555;-80
2024/04/16 10:43:56;;;;;;;19.58;3.50;;;10.50;84.50;;;;;;5187264;27;37690;-81
2024/04/16 10:46:30;;;;;;;18.23;3.13;;;10.60;80.40;;;;;;5186955;27;38347;-81
2024/04/16 10:49:02;;;;;;;20.40;4.30;;;10.50;44.60;;;;;;5183474;27;36903;-81
2024/04/16 10:51:32;;;;;;;20.48;3.58;;;10.30;47.30;;;;;;5151993;27;49714;-80
2024/04/16 10:54:09;;;;;;;17.30;3.30;;;10.20;90.70;;;;;;5182378;27;37448;-82
2024/04/16 10:56:37;;;;;;;14.18;3.47;;;10.10;99.90;;;;;;5180222;27;49068;-81
2024/04/16 10:59:14;;;;;;;16.65;2.55;;;9.90;99.90;;;;;;5188736;27;38096;-80
2024/04/16 11:01:47;;;;;;;14.65;2.58;;;9.90;99.90;;;;;;5173426;27;37892;-81
2024/04/16 11:04:17;;;;;;;;;;;10.00;99.90;;;;;;5176198;27;38124;-80
2024/04/16 11:06:45;;;;;;;19.30;2.88;;;10.00;99.90;;;;;;5178515;27;37307;-81
2024/04/16 11:09:14;;;;;;;12.13;2.17;;;10.30;99.90;;;;;;5179837;27;37697;-81
2024/04/16 11:11:43;;;;;;;19.63;3.38;;;10.50;97.30;;;;;;5188354;27;38300;-81
2024/04/16 11:14:13;;;;;;;11.50;2.33;;;10.90;97.40;;;;;;5170394;27;38678;-81
2024/04/16 11:16:41;;;;;;;13.50;2.80;;;11.00;51.00;;;;;;5172114;27;37182;-80
2024/04/16 11:19:09;;;;;;;11.77;2.40;;;10.90;81.10;;;;;;5167264;27;42015;-80
2024/04/16 11:21:35;;;;;;;15.02;2.83;;;10.90;92.30;;;;;;5173206;27;37597;-79
2024/04/16 11:24:04;;;;;;;11.35;2.00;;;10.60;73.80;;;;;;5173592;27;39549;-81
2024/04/16 11:26:31;;;;;;;6.20;1.92;;;10.30;92.40;;;;;;5166295;27;37377;-80
2024/04/16 11:29:02;;;;;;;6.85;1.70;;;10.10;93.40;;;;;;5170816;27;39622;-81
2024/04/16 11:31:30;;;;;;;7.78;1.50;;;9.80;90.40;;;;;;5172168;27;49238;-80
2024/04/16 11:33:57;;;;;;;6.63;1.25;;;9.70;92.80;;;;;;5163830;27;36867;-81
2024/04/16 11:36:24;;;;;;;10.63;2.13;;;9.70;99.90;;;;;;5158595;27;36676;-80
2024/04/16 11:38:53;;;;;;;12.10;2.67;;;9.70;99.90;;;;;;5175526;27;36223;-80
2024/04/16 11:41:21;;;;;;;7.35;2.17;;;9.70;99.90;;;;;;5168231;27;37533;-80
2024/04/16 11:43:51;;;;;;;12.73;3.00;;;9.70;99.90;;;;;;5173059;27;36469;-80
2024/04/16 11:46:19;;;;;;;20.33;2.90;;;9.70;99.90;;;;;;5170360;27;36516;-81
2024/04/16 11:48:48;;;;;;;14.13;3.20;;;9.80;99.90;;;;;;5174367;27;37422;-81
2024/04/16 11:51:17;;;;;;;15.70;3.58;;;9.90;99.90;;;;;;5163091;27;40487;-81
2024/04/16 11:53:47;;;;;;;23.55;3.85;;;10.00;99.90;;;;;;5174866;27;37571;-80
2024/04/16 11:56:14;;;;;;;18.60;2.75;;;10.10;99.90;;;;;;5172142;27;38418;-80
2024/04/16 11:58:43;;;;;;;13.15;2.25;;;10.30;99.90;;;;;;5167075;27;35495;-80
2024/04/16 12:01:14;;;;;;;13.30;3.15;;;10.40;93.20;;;;;;5169922;27;39338;-79
2024/04/16 12:03:43;;;;;;;16.73;2.55;;;10.50;57.90;;;;;;5179727;27;37256;-80
2024/04/16 12:06:10;;;;;;;12.27;2.15;;;10.40;44.20;;;;;;5167702;27;37815;-80
2024/04/16 12:08:36;;;;;;;15.32;2.55;;;10.30;39.60;;;;;;5164869;27;37712;-79
2024/04/16 12:11:05;;;;;;;12.45;2.53;;;10.30;40.10;;;;;;5159953;27;36406;-81
2024/04/16 12:13:39;;;;;;;;;;;10.20;35.80;;;;;;5190001;27;49137;-81
2024/04/16 12:16:09;;;;;;;15.57;2.22;;;10.20;37.00;;;;;;5163679;27;39299;-81
2024/04/16 12:18:49;;;;;;;9.38;1.80;;;10.10;37.60;;;;;;5198895;27;38263;-81
2024/04/16 12:21:21;;;;;;;16.23;2.80;;;10.10;28.40;;;;;;5183111;27;39282;-81
2024/04/16 12:23:54;;;;;;;17.88;1.95;;;10.10;40.50;;;;;;5186526;27;39093;-81
2024/04/16 12:26:32;;;;;;;13.63;2.45;;;10.10;42.50;;;;;;5194496;27;38449;-81
2024/04/16 12:29:03;;;;;;;18.55;2.55;;;10.20;45.50;;;;;;5184917;27;38005;-80
2024/04/16 12:31:35;;;;;;;16.75;2.03;;;10.20;41.40;;;;;;5163270;27;50508;-81
2024/04/16 12:34:11;;;;;;;9.90;2.35;;;10.30;27.40;;;;;;5164941;27;38875;-81
2024/04/16 12:36:48;;;;;;;13.25;2.38;;;10.50;28.00;;;;;;5130990;27;51171;-81
2024/04/16 12:39:36;;;;;;;11.85;1.80;;;10.70;13.20;;;;;;5137401;27;22511;-82
2024/04/16 12:42:14;;;;;;;16.70;2.63;;;10.80;1.00;;;;;;5148941;27;38777;-81
2024/04/16 12:44:47;;;;;;;12.93;1.80;;;10.70;1.00;;;;;;5172288;27;38890;-81
2024/04/16 12:47:18;;;;;;;14.02;2.50;;;10.60;1.00;;;;;;5110819;27;37249;-80
2024/04/16 12:50:28;;;;;;;8.70;1.92;;;10.50;1.00;;;;;;5145919;27;36446;-81
2024/04/16 12:53:06;;;;;;;17.35;2.17;;;10.40;1.00;;;;;;5114238;27;49255;-80
2024/04/16 12:55:59;;;;;;;11.80;2.50;;;10.30;1.00;;;;;;5143050;27;47698;-81
2024/04/16 12:58:47;;;;;;;16.08;2.33;;;10.30;1.00;;;;;;5137090;27;39416;-81
2024/04/16 13:01:21;;;;;;;10.07;2.20;;;10.30;1.00;;;;;;5099443;27;36710;-81
2024/04/16 13:03:47;;;;;;;16.77;2.60;;;10.30;1.00;;;;;;5138800;22;40473;-77
2024/04/16 13:10:09;;;;;;;15.33;2.17;;;10.30;6.80;;;;;;5131224;27;50723;-82
2024/04/16 13:21:05;;;;;;;13.03;2.37;;;10.10;1.00;;;;;;5551058;22;20054;-82